sensor_id;sensor_type;location;lat;lon;timestamp;temperature;humidity
67093;SHT31;54011;50.772;7.730;2023-03-13T00:01:43;10.47;76.95
67093;SHT31;54011;50.772;7.730;2023-03-13T00:04:09;10.46;77.25
67093;SHT31;54011;50.772;7.730;2023-03-13T00:06:36;10.59;76.87
67093;SHT31;54011;50.772;7.730;2023-03-13T00:09:14;10.63;77.13
67093;SHT31;54011;50.772;7.730;2023-03-13T00:11:40;10.66;77.11
67093;SHT31;54011;50.772;7.730;2023-03-13T00:14:06;10.76;76.57
67093;SHT31;54011;50.772;7.730;2023-03-13T00:16:33;10.78;76.80
67093;SHT31;54011;50.772;7.730;2023-03-13T00:18:59;10.67;77.05
67093;SHT31;54011;50.772;7.730;2023-03-13T00:21:29;10.80;76.78
67093;SHT31;54011;50.772;7.730;2023-03-13T00:23:57;10.88;76.62
67093;SHT31;54011;50.772;7.730;2023-03-13T00:26:25;10.83;77.20
67093;SHT31;54011;50.772;7.730;2023-03-13T00:28:53;10.85;77.30
67093;SHT31;54011;50.772;7.730;2023-03-13T00:31:24;10.84;77.42
67093;SHT31;54011;50.772;7.730;2023-03-13T00:33:58;10.93;77.12
67093;SHT31;54011;50.772;7.730;2023-03-13T00:36:34;11.00;76.82
67093;SHT31;54011;50.772;7.730;2023-03-13T00:39:08;11.15;76.53
67093;SHT31;54011;50.772;7.730;2023-03-13T00:41:41;11.04;76.78
67093;SHT31;54011;50.772;7.730;2023-03-13T00:44:13;11.19;76.56
67093;SHT31;54011;50.772;7.730;2023-03-13T00:46:42;11.03;77.36
67093;SHT31;54011;50.772;7.730;2023-03-13T00:49:09;11.08;77.06
67093;SHT31;54011;50.772;7.730;2023-03-13T00:51:37;11.12;77.17
67093;SHT31;54011;50.772;7.730;2023-03-13T00:54:03;11.22;76.90
67093;SHT31;54011;50.772;7.730;2023-03-13T00:56:29;11.17;77.37
67093;SHT31;54011;50.772;7.730;2023-03-13T00:58:55;11.12;77.21
67093;SHT31;54011;50.772;7.730;2023-03-13T01:01:38;11.08;77.36
67093;SHT31;54011;50.772;7.730;2023-03-13T01:04:10;11.25;77.10
67093;SHT31;54011;50.772;7.730;2023-03-13T01:06:38;11.21;77.38
67093;SHT31;54011;50.772;7.730;2023-03-13T01:09:06;11.18;77.00
67093;SHT31;54011;50.772;7.730;2023-03-13T01:11:35;11.43;76.58
67093;SHT31;54011;50.772;7.730;2023-03-13T01:14:03;11.39;76.50
67093;SHT31;54011;50.772;7.730;2023-03-13T01:16:31;11.19;77.15
67093;SHT31;54011;50.772;7.730;2023-03-13T01:19:12;11.25;77.06
67093;SHT31;54011;50.772;7.730;2023-03-13T01:21:38;11.40;77.11
67093;SHT31;54011;50.772;7.730;2023-03-13T01:24:04;11.46;76.63
67093;SHT31;54011;50.772;7.730;2023-03-13T01:26:30;11.52;76.86
67093;SHT31;54011;50.772;7.730;2023-03-13T01:28:56;11.38;77.36
67093;SHT31;54011;50.772;7.730;2023-03-13T01:31:25;11.27;77.96
67093;SHT31;54011;50.772;7.730;2023-03-13T01:33:54;11.40;78.29
67093;SHT31;54011;50.772;7.730;2023-03-13T01:36:21;11.29;78.60
67093;SHT31;54011;50.772;7.730;2023-03-13T01:38:51;11.11;80.12
67093;SHT31;54011;50.772;7.730;2023-03-13T01:41:18;11.11;80.66
67093;SHT31;54011;50.772;7.730;2023-03-13T01:43:44;11.00;80.96
67093;SHT31;54011;50.772;7.730;2023-03-13T01:46:28;10.88;82.03
67093;SHT31;54011;50.772;7.730;2023-03-13T01:49:12;10.96;82.25
67093;SHT31;54011;50.772;7.730;2023-03-13T01:52:23;10.78;83.70
67093;SHT31;54011;50.772;7.730;2023-03-13T01:55:04;10.74;83.88
67093;SHT31;54011;50.772;7.730;2023-03-13T01:57:34;10.60;84.42
67093;SHT31;54011;50.772;7.730;2023-03-13T02:00:14;10.70;84.65
67093;SHT31;54011;50.772;7.730;2023-03-13T02:02:45;10.60;85.61
67093;SHT31;54011;50.772;7.730;2023-03-13T02:05:11;10.46;86.16
67093;SHT31;54011;50.772;7.730;2023-03-13T02:07:53;10.63;86.14
67093;SHT31;54011;50.772;7.730;2023-03-13T02:10:22;10.59;86.21
67093;SHT31;54011;50.772;7.730;2023-03-13T02:12:50;10.53;86.77
67093;SHT31;54011;50.772;7.730;2023-03-13T02:15:19;10.63;85.95
67093;SHT31;54011;50.772;7.730;2023-03-13T02:17:46;10.78;85.67
67093;SHT31;54011;50.772;7.730;2023-03-13T02:20:14;10.77;85.73
67093;SHT31;54011;50.772;7.730;2023-03-13T02:25:43;10.73;86.04
67093;SHT31;54011;50.772;7.730;2023-03-13T02:28:17;10.70;86.37
67093;SHT31;54011;50.772;7.730;2023-03-13T02:30:46;10.71;85.72
67093;SHT31;54011;50.772;7.730;2023-03-13T02:33:13;10.98;85.42
67093;SHT31;54011;50.772;7.730;2023-03-13T02:35:40;10.83;85.98
67093;SHT31;54011;50.772;7.730;2023-03-13T02:38:13;10.90;85.57
67093;SHT31;54011;50.772;7.730;2023-03-13T02:40:43;11.00;85.85
67093;SHT31;54011;50.772;7.730;2023-03-13T02:43:17;10.96;85.59
67093;SHT31;54011;50.772;7.730;2023-03-13T02:46:05;10.98;84.96
67093;SHT31;54011;50.772;7.730;2023-03-13T02:48:39;11.05;85.21
67093;SHT31;54011;50.772;7.730;2023-03-13T02:51:09;11.03;85.20
67093;SHT31;54011;50.772;7.730;2023-03-13T02:53:36;11.24;85.07
67093;SHT31;54011;50.772;7.730;2023-03-13T02:56:03;11.22;84.62
67093;SHT31;54011;50.772;7.730;2023-03-13T02:58:37;11.21;84.79
67093;SHT31;54011;50.772;7.730;2023-03-13T03:01:02;11.28;84.84
67093;SHT31;54011;50.772;7.730;2023-03-13T03:03:34;11.27;85.26
67093;SHT31;54011;50.772;7.730;2023-03-13T03:06:00;11.32;85.07
67093;SHT31;54011;50.772;7.730;2023-03-13T03:08:26;11.35;85.20
67093;SHT31;54011;50.772;7.730;2023-03-13T03:10:52;11.35;85.17
67093;SHT31;54011;50.772;7.730;2023-03-13T03:13:19;11.34;85.63
67093;SHT31;54011;50.772;7.730;2023-03-13T03:15:45;11.35;85.89
67093;SHT31;54011;50.772;7.730;2023-03-13T03:18:10;11.18;86.57
67093;SHT31;54011;50.772;7.730;2023-03-13T03:20:36;11.25;86.87
67093;SHT31;54011;50.772;7.730;2023-03-13T03:23:01;11.31;86.75
67093;SHT31;54011;50.772;7.730;2023-03-13T03:25:27;11.25;86.83
67093;SHT31;54011;50.772;7.730;2023-03-13T03:27:52;11.28;87.05
67093;SHT31;54011;50.772;7.730;2023-03-13T03:30:19;11.27;87.31
67093;SHT31;54011;50.772;7.730;2023-03-13T03:32:45;11.43;87.32
67093;SHT31;54011;50.772;7.730;2023-03-13T03:35:10;11.34;87.74
67093;SHT31;54011;50.772;7.730;2023-03-13T03:37:37;11.24;87.70
67093;SHT31;54011;50.772;7.730;2023-03-13T03:40:04;11.29;87.62
67093;SHT31;54011;50.772;7.730;2023-03-13T03:42:31;11.18;87.92
67093;SHT31;54011;50.772;7.730;2023-03-13T03:44:58;11.25;87.71
67093;SHT31;54011;50.772;7.730;2023-03-13T03:47:24;11.24;88.12
67093;SHT31;54011;50.772;7.730;2023-03-13T03:49:49;11.32;87.51
67093;SHT31;54011;50.772;7.730;2023-03-13T03:52:15;11.36;87.35
67093;SHT31;54011;50.772;7.730;2023-03-13T03:54:42;11.49;87.10
67093;SHT31;54011;50.772;7.730;2023-03-13T03:57:08;11.36;87.39
67093;SHT31;54011;50.772;7.730;2023-03-13T03:59:35;11.45;87.27
67093;SHT31;54011;50.772;7.730;2023-03-13T04:02:06;11.49;86.89
67093;SHT31;54011;50.772;7.730;2023-03-13T04:04:32;11.70;86.68
67093;SHT31;54011;50.772;7.730;2023-03-13T04:07:05;11.49;87.13
67093;SHT31;54011;50.772;7.730;2023-03-13T04:09:32;11.63;86.89
67093;SHT31;54011;50.772;7.730;2023-03-13T04:11:58;11.65;86.46
67093;SHT31;54011;50.772;7.730;2023-03-13T04:14:23;11.72;86.01
67093;SHT31;54011;50.772;7.730;2023-03-13T04:16:49;11.77;85.96
67093;SHT31;54011;50.772;7.730;2023-03-13T04:19:15;11.63;86.25
67093;SHT31;54011;50.772;7.730;2023-03-13T04:21:42;11.61;86.63
67093;SHT31;54011;50.772;7.730;2023-03-13T04:24:11;11.77;86.24
67093;SHT31;54011;50.772;7.730;2023-03-13T04:26:39;11.87;85.94
67093;SHT31;54011;50.772;7.730;2023-03-13T04:29:06;11.72;86.32
67093;SHT31;54011;50.772;7.730;2023-03-13T04:31:54;11.79;86.08
67093;SHT31;54011;50.772;7.730;2023-03-13T04:34:39;11.90;85.91
67093;SHT31;54011;50.772;7.730;2023-03-13T04:37:36;11.91;85.69
67093;SHT31;54011;50.772;7.730;2023-03-13T04:40:31;11.97;85.36
67093;SHT31;54011;50.772;7.730;2023-03-13T04:43:15;11.97;85.53
67093;SHT31;54011;50.772;7.730;2023-03-13T04:45:51;12.07;85.16
67093;SHT31;54011;50.772;7.730;2023-03-13T04:48:37;12.08;85.35
67093;SHT31;54011;50.772;7.730;2023-03-13T04:51:32;12.03;85.38
67093;SHT31;54011;50.772;7.730;2023-03-13T04:54:26;12.03;85.69
67093;SHT31;54011;50.772;7.730;2023-03-13T04:56:58;12.03;85.63
67093;SHT31;54011;50.772;7.730;2023-03-13T04:59:30;11.96;86.25
67093;SHT31;54011;50.772;7.730;2023-03-13T05:01:59;12.03;85.89
67093;SHT31;54011;50.772;7.730;2023-03-13T05:04:43;12.12;85.86
67093;SHT31;54011;50.772;7.730;2023-03-13T05:07:28;12.07;85.99
67093;SHT31;54011;50.772;7.730;2023-03-13T05:10:07;11.96;86.41
67093;SHT31;54011;50.772;7.730;2023-03-13T05:13:05;12.17;85.67
67093;SHT31;54011;50.772;7.730;2023-03-13T05:15:38;12.10;85.99
67093;SHT31;54011;50.772;7.730;2023-03-13T05:18:22;12.21;85.61
67093;SHT31;54011;50.772;7.730;2023-03-13T05:21:02;12.17;86.10
67093;SHT31;54011;50.772;7.730;2023-03-13T05:23:38;12.26;86.00
67093;SHT31;54011;50.772;7.730;2023-03-13T05:26:21;12.23;85.47
67093;SHT31;54011;50.772;7.730;2023-03-13T05:28:58;12.34;85.39
67093;SHT31;54011;50.772;7.730;2023-03-13T05:31:42;12.28;85.35
67093;SHT31;54011;50.772;7.730;2023-03-13T05:34:24;12.30;85.80
67093;SHT31;54011;50.772;7.730;2023-03-13T05:37:09;12.31;85.64
67093;SHT31;54011;50.772;7.730;2023-03-13T05:39:35;12.34;85.55
67093;SHT31;54011;50.772;7.730;2023-03-13T05:42:18;12.40;85.49
67093;SHT31;54011;50.772;7.730;2023-03-13T05:44:52;12.41;85.50
67093;SHT31;54011;50.772;7.730;2023-03-13T05:47:33;12.44;85.61
67093;SHT31;54011;50.772;7.730;2023-03-13T05:50:08;12.41;85.32
67093;SHT31;54011;50.772;7.730;2023-03-13T05:52:49;12.45;85.25
67093;SHT31;54011;50.772;7.730;2023-03-13T05:55:34;12.47;85.23
67093;SHT31;54011;50.772;7.730;2023-03-13T05:58:31;12.48;85.30
67093;SHT31;54011;50.772;7.730;2023-03-13T06:01:12;12.48;85.29
67093;SHT31;54011;50.772;7.730;2023-03-13T06:03:47;12.58;85.07
67093;SHT31;54011;50.772;7.730;2023-03-13T06:06:14;12.59;85.02
67093;SHT31;54011;50.772;7.730;2023-03-13T06:08:45;12.64;85.30
67093;SHT31;54011;50.772;7.730;2023-03-13T06:11:12;12.71;85.23
67093;SHT31;54011;50.772;7.730;2023-03-13T06:13:37;12.76;85.06
67093;SHT31;54011;50.772;7.730;2023-03-13T06:16:14;12.78;84.74
67093;SHT31;54011;50.772;7.730;2023-03-13T06:18:42;12.86;84.78
67093;SHT31;54011;50.772;7.730;2023-03-13T06:21:08;12.99;84.35
67093;SHT31;54011;50.772;7.730;2023-03-13T06:23:35;12.89;84.82
67093;SHT31;54011;50.772;7.730;2023-03-13T06:26:01;12.97;84.61
67093;SHT31;54011;50.772;7.730;2023-03-13T06:28:26;13.09;84.22
67093;SHT31;54011;50.772;7.730;2023-03-13T06:30:52;13.05;84.44
67093;SHT31;54011;50.772;7.730;2023-03-13T06:33:18;13.07;84.35
67093;SHT31;54011;50.772;7.730;2023-03-13T06:35:43;13.06;84.11
67093;SHT31;54011;50.772;7.730;2023-03-13T06:38:09;13.07;84.42
67093;SHT31;54011;50.772;7.730;2023-03-13T06:40:35;13.24;83.86
67093;SHT31;54011;50.772;7.730;2023-03-13T06:43:00;13.12;84.43
67093;SHT31;54011;50.772;7.730;2023-03-13T06:45:26;13.13;84.20
67093;SHT31;54011;50.772;7.730;2023-03-13T06:47:51;13.24;84.02
67093;SHT31;54011;50.772;7.730;2023-03-13T06:50:17;13.30;83.80
67093;SHT31;54011;50.772;7.730;2023-03-13T06:52:45;13.36;83.77
67093;SHT31;54011;50.772;7.730;2023-03-13T06:55:11;13.24;83.50
67093;SHT31;54011;50.772;7.730;2023-03-13T06:57:36;13.44;83.56
67093;SHT31;54011;50.772;7.730;2023-03-13T07:00:02;13.58;83.31
67093;SHT31;54011;50.772;7.730;2023-03-13T07:02:30;13.74;82.81
67093;SHT31;54011;50.772;7.730;2023-03-13T07:04:59;13.78;82.49
67093;SHT31;54011;50.772;7.730;2023-03-13T07:07:30;13.98;81.91
67093;SHT31;54011;50.772;7.730;2023-03-13T07:09:58;13.97;81.86
67093;SHT31;54011;50.772;7.730;2023-03-13T07:12:24;14.09;81.77
67093;SHT31;54011;50.772;7.730;2023-03-13T07:14:51;14.08;81.93
67093;SHT31;54011;50.772;7.730;2023-03-13T07:17:17;14.00;82.16
67093;SHT31;54011;50.772;7.730;2023-03-13T07:19:44;14.01;82.08
67093;SHT31;54011;50.772;7.730;2023-03-13T07:22:10;14.04;81.68
67093;SHT31;54011;50.772;7.730;2023-03-13T07:24:36;14.24;81.47
67093;SHT31;54011;50.772;7.730;2023-03-13T07:27:01;14.11;81.69
67093;SHT31;54011;50.772;7.730;2023-03-13T07:29:27;14.14;81.76
67093;SHT31;54011;50.772;7.730;2023-03-13T07:31:53;14.28;81.60
67093;SHT31;54011;50.772;7.730;2023-03-13T07:34:19;14.25;81.40
67093;SHT31;54011;50.772;7.730;2023-03-13T07:36:44;14.40;81.34
67093;SHT31;54011;50.772;7.730;2023-03-13T07:39:11;14.45;81.06
67093;SHT31;54011;50.772;7.730;2023-03-13T07:41:40;14.29;81.54
67093;SHT31;54011;50.772;7.730;2023-03-13T07:44:08;14.37;81.10
67093;SHT31;54011;50.772;7.730;2023-03-13T07:46:34;14.49;80.90
67093;SHT31;54011;50.772;7.730;2023-03-13T07:48:59;14.53;80.97
67093;SHT31;54011;50.772;7.730;2023-03-13T07:51:25;14.35;80.60
67093;SHT31;54011;50.772;7.730;2023-03-13T07:53:52;14.29;80.82
67093;SHT31;54011;50.772;7.730;2023-03-13T07:56:20;14.45;80.85
67093;SHT31;54011;50.772;7.730;2023-03-13T07:58:49;14.35;80.02
67093;SHT31;54011;50.772;7.730;2023-03-13T08:03:42;14.46;80.04
67093;SHT31;54011;50.772;7.730;2023-03-13T08:06:12;14.45;80.26
67093;SHT31;54011;50.772;7.730;2023-03-13T08:08:38;14.37;80.19
67093;SHT31;54011;50.772;7.730;2023-03-13T08:11:15;14.55;79.86
67093;SHT31;54011;50.772;7.730;2023-03-13T08:13:42;14.46;80.24
67093;SHT31;54011;50.772;7.730;2023-03-13T08:18:43;14.80;79.07
67093;SHT31;54011;50.772;7.730;2023-03-13T08:21:18;14.93;77.90
67093;SHT31;54011;50.772;7.730;2023-03-13T08:23:45;15.05;77.96
67093;SHT31;54011;50.772;7.730;2023-03-13T08:26:16;15.00;77.95
67093;SHT31;54011;50.772;7.730;2023-03-13T08:28:43;14.96;77.30
67093;SHT31;54011;50.772;7.730;2023-03-13T08:31:13;15.03;77.18
67093;SHT31;54011;50.772;7.730;2023-03-13T08:33:41;15.07;76.08
67093;SHT31;54011;50.772;7.730;2023-03-13T08:36:21;15.21;75.58
67093;SHT31;54011;50.772;7.730;2023-03-13T08:38:52;15.51;76.01
67093;SHT31;54011;50.772;7.730;2023-03-13T08:41:24;15.21;75.45
67093;SHT31;54011;50.772;7.730;2023-03-13T08:43:54;15.17;75.77
67093;SHT31;54011;50.772;7.730;2023-03-13T08:46:21;15.21;74.99
67093;SHT31;54011;50.772;7.730;2023-03-13T08:48:52;15.32;75.46
67093;SHT31;54011;50.772;7.730;2023-03-13T08:51:18;15.42;75.33
67093;SHT31;54011;50.772;7.730;2023-03-13T08:53:44;15.25;75.15
67093;SHT31;54011;50.772;7.730;2023-03-13T08:56:14;15.45;74.64
67093;SHT31;54011;50.772;7.730;2023-03-13T08:58:39;15.39;74.47
67093;SHT31;54011;50.772;7.730;2023-03-13T09:01:09;15.42;74.69
67093;SHT31;54011;50.772;7.730;2023-03-13T09:03:37;15.42;74.71
67093;SHT31;54011;50.772;7.730;2023-03-13T09:06:03;15.38;74.66
67093;SHT31;54011;50.772;7.730;2023-03-13T09:08:31;15.44;74.73
67093;SHT31;54011;50.772;7.730;2023-03-13T09:11:01;15.48;74.22
67093;SHT31;54011;50.772;7.730;2023-03-13T09:13:28;15.38;74.17
67093;SHT31;54011;50.772;7.730;2023-03-13T09:15:59;15.66;73.86
67093;SHT31;54011;50.772;7.730;2023-03-13T09:18:26;15.69;73.87
67093;SHT31;54011;50.772;7.730;2023-03-13T09:20:52;15.95;73.50
67093;SHT31;54011;50.772;7.730;2023-03-13T09:23:18;15.92;73.94
67093;SHT31;54011;50.772;7.730;2023-03-13T09:25:44;15.75;74.03
67093;SHT31;54011;50.772;7.730;2023-03-13T09:28:09;15.69;73.89
67093;SHT31;54011;50.772;7.730;2023-03-13T09:30:35;15.72;73.83
67093;SHT31;54011;50.772;7.730;2023-03-13T09:33:02;15.66;74.52
67093;SHT31;54011;50.772;7.730;2023-03-13T09:35:28;15.66;74.28
67093;SHT31;54011;50.772;7.730;2023-03-13T09:37:53;15.72;73.70
67093;SHT31;54011;50.772;7.730;2023-03-13T09:40:23;15.82;74.09
67093;SHT31;54011;50.772;7.730;2023-03-13T09:42:52;15.89;73.85
67093;SHT31;54011;50.772;7.730;2023-03-13T09:45:30;15.79;74.37
67093;SHT31;54011;50.772;7.730;2023-03-13T09:54:23;15.58;75.34
67093;SHT31;54011;50.772;7.730;2023-03-13T09:56:59;15.35;76.14
67093;SHT31;54011;50.772;7.730;2023-03-13T09:59:44;15.55;76.20
67093;SHT31;54011;50.772;7.730;2023-03-13T10:02:28;15.56;76.87
67093;SHT31;54011;50.772;7.730;2023-03-13T10:05:18;15.14;79.37
67093;SHT31;54011;50.772;7.730;2023-03-13T10:07:45;14.86;80.81
67093;SHT31;54011;50.772;7.730;2023-03-13T10:10:32;14.70;81.89
67093;SHT31;54011;50.772;7.730;2023-03-13T10:13:12;14.81;81.99
67093;SHT31;54011;50.772;7.730;2023-03-13T10:15:55;14.69;82.85
67093;SHT31;54011;50.772;7.730;2023-03-13T10:18:23;14.77;82.38
67093;SHT31;54011;50.772;7.730;2023-03-13T10:20:55;14.72;82.87
67093;SHT31;54011;50.772;7.730;2023-03-13T10:26:14;14.79;83.63
67093;SHT31;54011;50.772;7.730;2023-03-13T10:28:43;14.33;84.51
67093;SHT31;54011;50.772;7.730;2023-03-13T10:31:32;14.28;85.06
67093;SHT31;54011;50.772;7.730;2023-03-13T10:34:09;14.59;84.04
67093;SHT31;54011;50.772;7.730;2023-03-13T10:36:41;14.50;84.00
67093;SHT31;54011;50.772;7.730;2023-03-13T10:39:15;14.45;84.91
67093;SHT31;54011;50.772;7.730;2023-03-13T10:41:40;14.32;85.66
67093;SHT31;54011;50.772;7.730;2023-03-13T10:44:17;14.26;86.17
67093;SHT31;54011;50.772;7.730;2023-03-13T10:46:45;14.24;85.94
67093;SHT31;54011;50.772;7.730;2023-03-13T10:49:19;14.35;86.11
67093;SHT31;54011;50.772;7.730;2023-03-13T10:51:50;14.19;86.14
67093;SHT31;54011;50.772;7.730;2023-03-13T10:54:28;14.25;86.27
67093;SHT31;54011;50.772;7.730;2023-03-13T10:59:47;14.25;86.15
67093;SHT31;54011;50.772;7.730;2023-03-13T11:02:24;14.09;86.45
67093;SHT31;54011;50.772;7.730;2023-03-13T11:04:51;14.28;86.43
67093;SHT31;54011;50.772;7.730;2023-03-13T11:07:29;14.14;86.76
67093;SHT31;54011;50.772;7.730;2023-03-13T11:09:58;14.18;86.36
67093;SHT31;54011;50.772;7.730;2023-03-13T11:12:24;14.08;86.85
67093;SHT31;54011;50.772;7.730;2023-03-13T11:15:01;14.18;86.94
67093;SHT31;54011;50.772;7.730;2023-03-13T11:17:39;14.25;87.08
67093;SHT31;54011;50.772;7.730;2023-03-13T11:20:24;14.12;87.91
67093;SHT31;54011;50.772;7.730;2023-03-13T11:22:59;14.32;86.88
67093;SHT31;54011;50.772;7.730;2023-03-13T11:25:31;14.55;86.84
67093;SHT31;54011;50.772;7.730;2023-03-13T11:28:19;14.66;86.72
67093;SHT31;54011;50.772;7.730;2023-03-13T11:31:38;14.29;87.24
67093;SHT31;54011;50.772;7.730;2023-03-13T11:48:39;14.42;87.17
67093;SHT31;54011;50.772;7.730;2023-03-13T11:51:36;14.46;87.44
67093;SHT31;54011;50.772;7.730;2023-03-13T11:54:22;14.65;87.02
67093;SHT31;54011;50.772;7.730;2023-03-13T11:56:53;14.47;87.06
67093;SHT31;54011;50.772;7.730;2023-03-13T12:04:58;14.50;87.55
67093;SHT31;54011;50.772;7.730;2023-03-13T12:07:40;14.52;87.11
67093;SHT31;54011;50.772;7.730;2023-03-13T12:15:18;14.79;86.21
67093;SHT31;54011;50.772;7.730;2023-03-13T12:25:54;15.00;85.22
67093;SHT31;54011;50.772;7.730;2023-03-13T12:28:36;14.96;85.46
67093;SHT31;54011;50.772;7.730;2023-03-13T12:31:31;14.94;84.93
67093;SHT31;54011;50.772;7.730;2023-03-13T12:34:23;14.70;85.88
67093;SHT31;54011;50.772;7.730;2023-03-13T12:37:00;14.70;85.77
67093;SHT31;54011;50.772;7.730;2023-03-13T12:39:41;14.84;85.78
67093;SHT31;54011;50.772;7.730;2023-03-13T12:42:33;14.72;85.86
67093;SHT31;54011;50.772;7.730;2023-03-13T12:45:01;14.72;86.00
67093;SHT31;54011;50.772;7.730;2023-03-13T12:50:04;14.81;85.54
67093;SHT31;54011;50.772;7.730;2023-03-13T12:53:00;14.70;85.18
67093;SHT31;54011;50.772;7.730;2023-03-13T12:55:57;14.66;85.75
67093;SHT31;54011;50.772;7.730;2023-03-13T13:01:29;14.66;85.70
67093;SHT31;54011;50.772;7.730;2023-03-13T13:03:59;14.70;85.33
67093;SHT31;54011;50.772;7.730;2023-03-13T13:06:29;14.96;85.44
67093;SHT31;54011;50.772;7.730;2023-03-13T13:09:20;14.69;85.45
67093;SHT31;54011;50.772;7.730;2023-03-13T13:11:47;14.70;85.82
67093;SHT31;54011;50.772;7.730;2023-03-13T13:16:42;14.74;85.92
67093;SHT31;54011;50.772;7.730;2023-03-13T13:24:59;14.79;84.91
67093;SHT31;54011;50.772;7.730;2023-03-13T13:35:26;14.77;84.80
67093;SHT31;54011;50.772;7.730;2023-03-13T13:37:53;14.79;85.07
67093;SHT31;54011;50.772;7.730;2023-03-13T13:40:38;14.73;84.47
67093;SHT31;54011;50.772;7.730;2023-03-13T13:43:04;14.96;84.21
67093;SHT31;54011;50.772;7.730;2023-03-13T13:45:32;14.77;83.73
67093;SHT31;54011;50.772;7.730;2023-03-13T13:48:25;14.87;83.17
67093;SHT31;54011;50.772;7.730;2023-03-13T13:53:47;14.96;82.93
67093;SHT31;54011;50.772;7.730;2023-03-13T13:59:20;15.35;81.06
67093;SHT31;54011;50.772;7.730;2023-03-13T14:02:11;15.70;79.86
67093;SHT31;54011;50.772;7.730;2023-03-13T14:05:04;15.90;79.83
67093;SHT31;54011;50.772;7.730;2023-03-13T14:10:15;15.99;78.94
67093;SHT31;54011;50.772;7.730;2023-03-13T14:12:55;15.95;79.17
67093;SHT31;54011;50.772;7.730;2023-03-13T14:15:24;15.89;79.58
67093;SHT31;54011;50.772;7.730;2023-03-13T14:22:57;15.92;79.99
67093;SHT31;54011;50.772;7.730;2023-03-13T14:25:24;15.85;80.24
67093;SHT31;54011;50.772;7.730;2023-03-13T14:27:51;15.72;80.10
67093;SHT31;54011;50.772;7.730;2023-03-13T14:30:18;15.95;79.62
67093;SHT31;54011;50.772;7.730;2023-03-13T14:32:44;15.87;79.39
67093;SHT31;54011;50.772;7.730;2023-03-13T14:35:13;15.72;79.63
67093;SHT31;54011;50.772;7.730;2023-03-13T14:37:47;15.87;79.40
67093;SHT31;54011;50.772;7.730;2023-03-13T14:40:22;15.92;79.50
67093;SHT31;54011;50.772;7.730;2023-03-13T14:42:58;15.83;80.64
67093;SHT31;54011;50.772;7.730;2023-03-13T14:45:35;15.51;82.14
67093;SHT31;54011;50.772;7.730;2023-03-13T14:48:22;15.25;83.24
67093;SHT31;54011;50.772;7.730;2023-03-13T14:50:56;15.34;84.16
67093;SHT31;54011;50.772;7.730;2023-03-13T14:53:24;15.08;84.35
67093;SHT31;54011;50.772;7.730;2023-03-13T14:56:12;15.56;83.65
67093;SHT31;54011;50.772;7.730;2023-03-13T14:58:39;15.83;83.18
67093;SHT31;54011;50.772;7.730;2023-03-13T15:01:26;16.67;82.25
67093;SHT31;54011;50.772;7.730;2023-03-13T15:03:55;16.24;81.30
67093;SHT31;54011;50.772;7.730;2023-03-13T15:06:24;16.16;81.37
67093;SHT31;54011;50.772;7.730;2023-03-13T15:11:35;16.34;79.53
67093;SHT31;54011;50.772;7.730;2023-03-13T15:14:37;16.31;79.78
67093;SHT31;54011;50.772;7.730;2023-03-13T15:17:03;17.50;75.88
67093;SHT31;54011;50.772;7.730;2023-03-13T15:19:35;17.18;76.01
67093;SHT31;54011;50.772;7.730;2023-03-13T15:22:01;16.82;77.07
67093;SHT31;54011;50.772;7.730;2023-03-13T15:24:26;16.44;77.62
67093;SHT31;54011;50.772;7.730;2023-03-13T15:26:52;16.40;78.94
67093;SHT31;54011;50.772;7.730;2023-03-13T15:29:17;16.33;77.92
67093;SHT31;54011;50.772;7.730;2023-03-13T15:31:43;16.37;76.98
67093;SHT31;54011;50.772;7.730;2023-03-13T15:34:13;16.31;75.74
67093;SHT31;54011;50.772;7.730;2023-03-13T15:36:39;16.31;75.37
67093;SHT31;54011;50.772;7.730;2023-03-13T15:39:15;16.31;74.60
67093;SHT31;54011;50.772;7.730;2023-03-13T15:41:43;16.31;74.01
67093;SHT31;54011;50.772;7.730;2023-03-13T15:44:09;16.37;74.29
67093;SHT31;54011;50.772;7.730;2023-03-13T15:46:34;16.50;73.56
67093;SHT31;54011;50.772;7.730;2023-03-13T15:48:59;16.48;73.64
67093;SHT31;54011;50.772;7.730;2023-03-13T15:51:25;16.40;72.34
67093;SHT31;54011;50.772;7.730;2023-03-13T15:53:52;16.60;72.97
67093;SHT31;54011;50.772;7.730;2023-03-13T15:56:20;16.53;72.03
67093;SHT31;54011;50.772;7.730;2023-03-13T15:58:48;16.50;72.66
67093;SHT31;54011;50.772;7.730;2023-03-13T16:01:15;16.54;72.00
67093;SHT31;54011;50.772;7.730;2023-03-13T16:03:41;16.47;72.09
67093;SHT31;54011;50.772;7.730;2023-03-13T16:06:21;16.33;71.45
67093;SHT31;54011;50.772;7.730;2023-03-13T16:09:01;16.37;71.28
67093;SHT31;54011;50.772;7.730;2023-03-13T16:11:27;16.61;71.09
67093;SHT31;54011;50.772;7.730;2023-03-13T16:13:54;16.45;71.44
67093;SHT31;54011;50.772;7.730;2023-03-13T16:16:35;16.58;71.06
67093;SHT31;54011;50.772;7.730;2023-03-13T16:19:01;16.38;70.55
67093;SHT31;54011;50.772;7.730;2023-03-13T16:21:31;16.58;70.44
67093;SHT31;54011;50.772;7.730;2023-03-13T16:23:57;16.58;70.98
67093;SHT31;54011;50.772;7.730;2023-03-13T16:26:24;16.51;70.05
67093;SHT31;54011;50.772;7.730;2023-03-13T16:28:52;16.63;70.01
67093;SHT31;54011;50.772;7.730;2023-03-13T16:31:26;16.72;68.28
67093;SHT31;54011;50.772;7.730;2023-03-13T16:33:53;16.55;69.16
67093;SHT31;54011;50.772;7.730;2023-03-13T16:36:24;16.47;68.45
67093;SHT31;54011;50.772;7.730;2023-03-13T16:38:51;16.33;69.57
67093;SHT31;54011;50.772;7.730;2023-03-13T16:41:19;16.50;67.55
67093;SHT31;54011;50.772;7.730;2023-03-13T16:43:45;16.28;67.49
67093;SHT31;54011;50.772;7.730;2023-03-13T16:46:19;16.69;65.51
67093;SHT31;54011;50.772;7.730;2023-03-13T16:48:46;16.91;64.03
67093;SHT31;54011;50.772;7.730;2023-03-13T16:51:22;16.84;64.92
67093;SHT31;54011;50.772;7.730;2023-03-13T16:53:50;16.60;65.04
67093;SHT31;54011;50.772;7.730;2023-03-13T16:56:39;16.31;64.26
67093;SHT31;54011;50.772;7.730;2023-03-13T16:59:13;16.37;64.79
67093;SHT31;54011;50.772;7.730;2023-03-13T17:01:39;16.44;64.80
67093;SHT31;54011;50.772;7.730;2023-03-13T17:04:05;16.38;66.34
67093;SHT31;54011;50.772;7.730;2023-03-13T17:06:34;16.06;65.86
67093;SHT31;54011;50.772;7.730;2023-03-13T17:09:01;16.12;65.32
67093;SHT31;54011;50.772;7.730;2023-03-13T17:11:28;16.21;66.22
67093;SHT31;54011;50.772;7.730;2023-03-13T17:13:56;16.10;67.36
67093;SHT31;54011;50.772;7.730;2023-03-13T17:16:24;16.07;67.16
67093;SHT31;54011;50.772;7.730;2023-03-13T17:18:51;15.83;67.57
67093;SHT31;54011;50.772;7.730;2023-03-13T17:21:22;16.07;67.22
67093;SHT31;54011;50.772;7.730;2023-03-13T17:23:48;15.99;67.48
67093;SHT31;54011;50.772;7.730;2023-03-13T17:26:24;15.97;68.13
67093;SHT31;54011;50.772;7.730;2023-03-13T17:28:52;16.00;67.37
67093;SHT31;54011;50.772;7.730;2023-03-13T17:31:19;15.97;68.59